Time;durP1;ratioP1;P1;durP2;ratioP2;P2;SDS_P1;SDS_P2;PMS_P1;PMS_P2;Temp;Humidity;BMP_temperature;BMP_pressure;BME280_temperature;BME280_humidity;BME280_pressure;Samples;Min_cycle;Max_cycle;Signal;HPM_P1;HPM_P2
2022/01/25 00:25:44;;;;;;;58.33;27.65;;;;;;;4.19;100.00;103279.69;10014717;28;20056;-74
2022/01/25 00:30:58;;;;;;;61.38;28.67;;;;;;;4.12;100.00;103278.03;10043572;28;20458;-73
2022/01/25 00:35:56;;;;;;;63.22;29.95;;;;;;;4.18;100.00;103272.63;10018531;29;20107;-71
2022/01/25 00:40:52;;;;;;;64.18;30.83;;;;;;;4.18;100.00;103266.38;10055868;28;20107;-73
2022/01/25 00:45:52;;;;;;;59.80;27.70;;;;;;;4.11;100.00;103260.13;10015278;29;20131;-71
2022/01/25 00:50:49;;;;;;;68.72;30.50;;;;;;;4.20;100.00;103261.53;10058139;28;20547;-69
2022/01/25 00:55:45;;;;;;;66.47;31.63;;;;;;;4.19;100.00;103251.78;10004315;29;20071;-72
2022/01/25 01:00:42;;;;;;;68.15;32.58;;;;;;;4.12;100.00;103251.78;10007777;28;20068;-72
2022/01/25 01:05:39;;;;;;;69.75;33.70;;;;;;;4.25;100.00;103261.75;10035502;28;20102;-72
2022/01/25 01:10:45;;;;;;;73.82;33.17;;;;;;;4.22;100.00;103251.34;10045867;28;20043;-71
2022/01/25 01:15:58;;;;;;;79.53;33.53;;;;;;;4.09;100.00;103254.09;10036513;29;20055;-71
2022/01/25 01:47:06;;;;;;;84.70;39.30;;;;;;;4.04;100.00;103243.06;10035556;29;20469;-72
2022/01/25 01:52:04;;;;;;;80.50;34.78;;;;;;;3.86;100.00;103239.16;10055812;28;20054;-72
2022/01/25 01:57:01;;;;;;;87.13;39.20;;;;;;;4.05;100.00;103240.16;10008260;29;20488;-71
2022/01/25 02:01:58;;;;;;;82.88;34.97;;;;;;;4.10;100.00;103247.63;10057955;28;20079;-69
2022/01/25 02:06:55;;;;;;;89.68;37.63;;;;;;;4.10;100.00;103244.91;10031293;28;20047;-71
2022/01/25 02:11:51;;;;;;;94.63;38.22;;;;;;;4.00;100.00;103243.50;10041474;29;20530;-70
2022/01/25 02:27:01;;;;;;;87.10;38.33;;;;;;;4.15;100.00;103229.69;10044937;29;20047;-69
2022/01/25 02:31:58;;;;;;;91.43;39.65;;;;;;;4.15;100.00;103234.28;10044597;28;20055;-69
2022/01/25 02:36:59;;;;;;;91.30;40.13;;;;;;;4.08;100.00;103238.88;10047121;28;20056;-69
2022/01/25 02:41:56;;;;;;;90.63;37.97;;;;;;;4.05;100.00;103233.91;10035146;28;20086;-69
2022/01/25 02:52:02;;;;;;;93.63;39.15;;;;;;;4.10;100.00;103225.97;10024982;29;20048;-70
2022/01/25 02:56:59;;;;;;;85.45;37.60;;;;;;;4.09;100.00;103229.72;10024988;29;20102;-69
2022/01/25 03:01:56;;;;;;;89.75;38.17;;;;;;;4.21;100.00;103241.56;10020908;29;20127;-69
2022/01/25 03:06:53;;;;;;;95.13;39.97;;;;;;;4.19;100.00;103235.53;10048159;28;20478;-69
2022/01/25 03:11:52;;;;;;;91.72;38.35;;;;;;;4.17;100.00;103234.91;10040589;29;20043;-69
2022/01/25 03:21:48;;;;;;;88.18;38.08;;;;;;;3.93;100.00;103223.72;10030288;29;20050;-69
2022/01/25 03:26:45;;;;;;;90.57;37.45;;;;;;;4.07;100.00;103221.81;10025174;29;20067;-70
2022/01/25 03:31:41;;;;;;;89.60;37.25;;;;;;;4.02;100.00;103205.38;10041154;28;20076;-70
2022/01/25 03:36:38;;;;;;;87.13;36.88;;;;;;;4.08;100.00;103190.16;10032257;29;20048;-69
2022/01/25 03:41:35;;;;;;;94.80;37.53;;;;;;;3.95;100.00;103183.75;10019211;29;20514;-69
2022/01/25 03:51:31;;;;;;;91.70;39.55;;;;;;;4.02;100.00;103174.78;10030308;28;20518;-70
2022/01/25 03:56:28;;;;;;;88.75;39.55;;;;;;;3.97;100.00;103176.25;10021616;29;20410;-72
2022/01/25 04:01:25;;;;;;;94.53;39.47;;;;;;;4.06;100.00;103181.41;10031633;29;20079;-70
2022/01/25 04:06:22;;;;;;;96.80;39.08;;;;;;;4.13;100.00;103183.06;10016261;29;20067;-71
2022/01/25 04:11:18;;;;;;;94.43;40.47;;;;;;;4.10;100.00;103185.34;10017599;28;20170;-70
2022/01/25 04:16:20;;;;;;;92.05;38.90;;;;;;;4.21;100.00;103190.94;10031847;28;20088;-70
2022/01/25 04:21:44;;;;;;;88.53;36.97;;;;;;;4.24;100.00;103189.66;10024451;28;20174;-70
2022/01/25 04:26:40;;;;;;;92.93;39.30;;;;;;;4.20;100.00;103178.47;10027029;28;20056;-70
2022/01/25 04:31:37;;;;;;;101.10;40.30;;;;;;;4.17;100.00;103172.63;10013389;28;20060;-70
2022/01/25 04:52:15;;;;;;;95.50;39.85;;;;;;;4.20;100.00;103169.47;10028825;28;20550;-71
2022/01/25 05:02:45;;;;;;;85.75;36.22;;;;;;;4.26;100.00;103168.63;10000181;29;20434;-70
2022/01/25 05:08:19;;;;;;;96.47;40.10;;;;;;;4.34;100.00;103178.38;10012100;29;20047;-70
2022/01/25 05:13:04;;;;;;;95.15;41.90;;;;;;;4.29;100.00;103176.31;10017340;29;20072;-70
2022/01/25 05:18:11;;;;;;;98.57;40.78;;;;;;;4.28;100.00;103169.25;10011202;29;20075;-69
2022/01/25 05:23:07;;;;;;;87.65;38.45;;;;;;;4.26;100.00;103171.34;10020838;29;20182;-73
2022/01/25 05:28:03;;;;;;;87.15;39.45;;;;;;;4.19;100.00;103175.94;10016210;28;20071;-73
2022/01/25 05:33:00;;;;;;;95.43;38.70;;;;;;;4.17;100.00;103172.63;10034521;29;20056;-73
2022/01/25 05:37:57;;;;;;;101.13;42.55;;;;;;;4.19;100.00;103170.53;10045822;28;20470;-73
2022/01/25 05:48:09;;;;;;;91.35;40.45;;;;;;;4.24;100.00;103167.19;10022843;29;20142;-72
2022/01/25 05:53:06;;;;;;;94.55;41.90;;;;;;;4.17;100.00;103169.91;10018966;29;20139;-72
2022/01/25 05:58:02;;;;;;;94.10;39.92;;;;;;;4.21;100.00;103174.69;10020316;28;20047;-73
2022/01/25 06:03:01;;;;;;;92.45;38.50;;;;;;;4.18;100.00;103174.31;10017759;28;20044;-73
2022/01/25 06:07:58;;;;;;;97.57;40.75;;;;;;;4.17;100.00;103173.44;10017240;29;20484;-73
2022/01/25 06:12:54;;;;;;;97.03;41.03;;;;;;;4.26;100.00;103170.50;10042256;28;20532;-73
2022/01/25 06:17:51;;;;;;;97.00;39.85;;;;;;;4.18;100.00;103163.47;10032359;28;20075;-76
2022/01/25 06:22:47;;;;;;;89.47;38.40;;;;;;;4.17;100.00;103164.50;10033865;28;20136;-74
2022/01/25 06:27:44;;;;;;;102.15;43.10;;;;;;;4.25;100.00;103168.81;10024800;29;20079;-76
2022/01/25 06:32:41;;;;;;;98.00;40.95;;;;;;;4.23;100.00;103166.34;10033244;28;20118;-77
2022/01/25 06:37:38;;;;;;;94.13;41.60;;;;;;;4.21;100.00;103157.63;10027075;28;20051;-74
2022/01/25 06:42:36;;;;;;;95.50;40.45;;;;;;;4.09;100.00;103164.75;10011358;29;20138;-76
2022/01/25 06:47:32;;;;;;;86.22;36.83;;;;;;;4.19;100.00;103165.13;10019761;29;20102;-76
2022/01/25 06:52:29;;;;;;;95.03;41.10;;;;;;;4.26;100.00;103170.50;10048251;28;20051;-76
2022/01/25 06:57:25;;;;;;;92.70;38.72;;;;;;;4.34;100.00;103171.09;10036736;28;20098;-76
2022/01/25 07:02:22;;;;;;;93.35;39.00;;;;;;;4.24;100.00;103173.41;10029503;29;20060;-75
2022/01/25 07:07:18;;;;;;;91.40;37.58;;;;;;;4.33;100.00;103172.13;10025226;28;20461;-76
2022/01/25 07:12:16;;;;;;;89.18;39.22;;;;;;;4.32;100.00;103175.91;10024176;28;20502;-76
2022/01/25 07:17:13;;;;;;;88.65;40.70;;;;;;;4.38;100.00;103169.59;10035106;29;20594;-76
2022/01/25 07:22:10;;;;;;;90.32;38.00;;;;;;;4.28;100.00;103185.50;10019350;29;20495;-73
2022/01/25 07:27:07;;;;;;;85.00;37.00;;;;;;;4.16;100.00;103192.63;10012764;29;20047;-74
2022/01/25 07:32:04;;;;;;;83.68;37.72;;;;;;;4.19;100.00;103192.19;10028926;28;20075;-74
2022/01/25 07:37:14;;;;;;;94.55;39.10;;;;;;;4.09;100.00;103191.84;10017954;28;20036;-74
2022/01/25 07:42:17;;;;;;;98.82;42.42;;;;;;;4.06;100.00;103193.09;9998486;29;20095;-76
2022/01/25 07:47:14;;;;;;;91.00;38.55;;;;;;;4.03;100.00;103204.31;10009080;29;20251;-76
2022/01/25 07:52:11;;;;;;;92.43;39.08;;;;;;;4.12;100.00;103207.63;10021614;28;20048;-76
2022/01/25 07:57:07;;;;;;;95.40;39.30;;;;;;;4.23;100.00;103204.28;10014172;28;20131;-76
2022/01/25 08:02:04;;;;;;;93.82;38.33;;;;;;;4.17;100.00;103205.94;10013278;29;20043;-76
2022/01/25 08:07:27;;;;;;;94.30;39.08;;;;;;;4.27;100.00;103205.50;9932749;29;20056;-76
2022/01/25 08:12:28;;;;;;;98.35;42.03;;;;;;;4.24;100.00;103208.63;9949253;29;20101;-76
2022/01/25 08:17:39;;;;;;;101.60;38.70;;;;;;;4.22;100.00;103202.59;10009927;28;20390;-76
2022/01/25 08:22:44;;;;;;;104.72;41.30;;;;;;;4.27;100.00;103210.06;10010564;29;20537;-76
2022/01/25 08:28:09;;;;;;;99.80;38.67;;;;;;;4.29;100.00;103208.81;9971080;29;20048;-77
2022/01/25 08:33:29;;;;;;;98.50;37.78;;;;;;;4.23;100.00;103215.09;10003743;29;20044;-75
2022/01/25 08:39:01;;;;;;;92.65;39.08;;;;;;;4.28;100.00;103209.88;10054126;29;20043;-76
2022/01/25 08:44:01;;;;;;;96.32;37.13;;;;;;;4.20;100.00;103212.81;10012547;28;20387;-76
2022/01/25 08:49:16;;;;;;;96.57;38.30;;;;;;;4.30;100.00;103215.09;10016314;29;20640;-76
2022/01/25 08:54:31;;;;;;;98.63;37.45;;;;;;;4.30;100.00;103215.91;10038526;29;20040;-75
2022/01/25 08:59:33;;;;;;;100.07;38.70;;;;;;;4.29;100.00;103214.22;10027403;29;20052;-76
2022/01/25 09:04:29;;;;;;;92.72;37.70;;;;;;;4.34;100.00;103216.28;10021719;29;20135;-76
2022/01/25 09:09:26;;;;;;;93.32;41.25;;;;;;;4.36;100.00;103220.47;10062012;29;20126;-77
2022/01/25 09:14:23;;;;;;;94.25;39.90;;;;;;;4.39;100.00;103225.47;10031266;29;20051;-76
2022/01/25 09:19:20;;;;;;;94.20;38.67;;;;;;;4.52;100.00;103229.16;10029789;28;20051;-76
2022/01/25 09:24:16;;;;;;;99.53;39.42;;;;;;;4.49;100.00;103226.88;10015961;29;20044;-76
2022/01/25 09:29:13;;;;;;;93.13;37.08;;;;;;;4.55;100.00;103229.56;10019664;28;20056;-76
2022/01/25 09:34:11;;;;;;;99.85;40.30;;;;;;;4.43;100.00;103220.41;10030621;28;20043;-76
2022/01/25 09:39:08;;;;;;;89.50;37.58;;;;;;;4.50;100.00;103228.53;10020834;28;20091;-76
2022/01/25 09:44:05;;;;;;;86.32;35.83;;;;;;;4.59;100.00;103219.09;10023108;28;20130;-76
2022/01/25 09:49:01;;;;;;;88.13;35.90;;;;;;;4.60;100.00;103220.78;10025159;28;20067;-76
2022/01/25 09:53:58;;;;;;;79.20;32.20;;;;;;;4.63;100.00;103231.19;10029380;29;20106;-76
2022/01/25 09:58:54;;;;;;;74.35;31.63;;;;;;;4.53;100.00;103233.53;10054094;29;20075;-76
2022/01/25 10:03:51;;;;;;;80.03;32.05;;;;;;;4.67;100.00;103224.28;10003122;28;20094;-76
2022/01/25 10:08:52;;;;;;;82.28;35.90;;;;;;;4.74;100.00;103226.97;10008219;29;20093;-76
2022/01/25 10:13:55;;;;;;;71.43;32.73;;;;;;;4.74;100.00;103226.97;10042232;28;20044;-76
2022/01/25 10:18:56;;;;;;;67.00;26.87;;;;;;;4.56;100.00;103235.81;10015252;28;20048;-77
2022/01/25 10:24:15;;;;;;;72.32;30.58;;;;;;;4.56;100.00;103230.38;10034900;29;20466;-76
2022/01/25 10:29:26;;;;;;;70.78;31.60;;;;;;;4.68;100.00;103234.06;10034176;28;20058;-76
2022/01/25 10:34:25;;;;;;;70.40;29.55;;;;;;;4.75;100.00;103232.16;10036362;28;20055;-75
2022/01/25 10:39:27;;;;;;;68.05;30.33;;;;;;;4.85;100.00;103218.97;10077475;28;20086;-76
2022/01/25 10:44:23;;;;;;;76.35;33.38;;;;;;;4.90;100.00;103220.16;10041625;28;20135;-76
2022/01/25 10:49:20;;;;;;;69.63;31.58;;;;;;;4.93;100.00;103214.34;10024012;28;20080;-76
2022/01/25 10:54:22;;;;;;;63.47;30.08;;;;;;;4.98;100.00;103222.63;10025487;28;20653;-76
2022/01/25 10:59:21;;;;;;;68.63;30.67;;;;;;;4.92;100.00;103223.50;10014326;29;20079;-76
2022/01/25 11:04:21;;;;;;;68.55;29.83;;;;;;;4.92;100.00;103216.22;10010086;28;20096;-76
2022/01/25 11:09:19;;;;;;;72.65;31.85;;;;;;;4.96;100.00;103213.88;10016447;29;20044;-76
2022/01/25 11:19:31;;;;;;;59.50;28.92;;;;;;;5.03;100.00;103198.41;10035815;28;20048;-76
2022/01/25 11:24:30;;;;;;;61.10;28.23;;;;;;;5.07;100.00;103188.78;10035189;28;20078;-76
2022/01/25 11:29:28;;;;;;;59.30;26.08;;;;;;;4.97;100.00;103183.84;10024637;28;20056;-76
2022/01/25 11:34:27;;;;;;;62.65;26.35;;;;;;;5.01;100.00;103184.22;10028987;29;20078;-76
2022/01/25 11:39:27;;;;;;;59.60;25.33;;;;;;;4.90;100.00;103182.22;10037429;28;20079;-76
2022/01/25 11:44:26;;;;;;;60.05;27.17;;;;;;;5.05;100.00;103174.63;10042837;29;20039;-76
2022/01/25 11:49:24;;;;;;;58.15;25.65;;;;;;;5.02;100.00;103175.06;10037557;28;20048;-76
2022/01/25 11:54:20;;;;;;;55.38;23.88;;;;;;;4.99;100.00;103170.91;10026365;29;20208;-76
2022/01/25 11:59:17;;;;;;;57.83;25.08;;;;;;;4.95;100.00;103169.69;10039798;28;20047;-76
2022/01/25 12:04:16;;;;;;;58.75;25.50;;;;;;;4.98;100.00;103157.56;10014841;28;20047;-75
2022/01/25 12:10:12;;;;;;;60.78;26.88;;;;;;;4.95;100.00;103153.41;10026341;29;20047;-76
2022/01/25 12:14:52;;;;;;;56.13;25.63;;;;;;;5.02;100.00;103145.25;10016460;28;20107;-76
2022/01/25 12:19:54;;;;;;;58.38;25.20;;;;;;;5.03;100.00;103138.75;10004727;29;20044;-76
2022/01/25 12:30:42;;;;;;;55.35;24.90;;;;;;;5.32;100.00;103139.16;10029907;28;20106;-76
2022/01/25 12:35:52;;;;;;;53.20;24.98;;;;;;;5.31;100.00;103123.91;10048744;28;20126;-77
2022/01/25 12:40:48;;;;;;;51.40;24.13;;;;;;;5.45;100.00;103125.44;10040360;28;20071;-76
2022/01/25 12:45:58;;;;;;;53.33;24.20;;;;;;;5.47;100.00;103123.31;10019648;28;20047;-76
2022/01/25 12:50:58;;;;;;;46.15;20.48;;;;;;;5.60;100.00;103128.63;10021019;29;20050;-76
2022/01/25 12:55:59;;;;;;;45.15;20.38;;;;;;;5.58;100.00;103125.28;10014759;28;20048;-76
2022/01/25 13:00:59;;;;;;;48.35;23.00;;;;;;;5.63;100.00;103121.91;10003220;29;20044;-76
2022/01/25 13:05:58;;;;;;;41.22;20.08;;;;;;;5.46;100.00;103124.38;10010904;28;20072;-75
2022/01/25 13:11:19;;;;;;;45.08;21.02;;;;;;;5.41;100.00;103118.81;10035182;29;20047;-75
2022/01/25 13:16:50;;;;;;;45.88;20.90;;;;;;;5.35;100.00;103114.28;10028497;28;20087;-76
2022/01/25 13:22:01;;;;;;;44.75;20.77;;;;;;;5.27;100.00;103102.66;10032934;29;20431;-75
2022/01/25 13:27:09;;;;;;;40.35;20.58;;;;;;;5.46;100.00;103110.81;10019929;28;20047;-75
2022/01/25 13:32:21;;;;;;;47.60;20.38;;;;;;;5.43;100.00;103108.53;10030705;28;20040;-75
2022/01/25 13:37:21;;;;;;;44.20;21.60;;;;;;;5.40;100.00;103101.69;10037095;28;20048;-76
2022/01/25 13:42:25;;;;;;;38.97;17.95;;;;;;;5.48;100.00;103098.69;10031986;29;20043;-75
2022/01/25 13:47:21;;;;;;;40.65;19.50;;;;;;;5.34;100.00;103097.16;10037747;28;20522;-75
2022/01/25 13:52:20;;;;;;;32.55;17.00;;;;;;;5.36;100.00;103095.06;10033857;29;20043;-75
2022/01/25 13:57:16;;;;;;;34.20;17.73;;;;;;;5.34;100.00;103096.31;10037979;28;20075;-75
2022/01/25 14:02:14;;;;;;;33.35;17.27;;;;;;;5.54;100.00;103105.09;10023700;28;20067;-75
2022/01/25 14:07:12;;;;;;;35.53;16.25;;;;;;;5.42;100.00;103093.31;10028816;28;20489;-75
2022/01/25 14:28:05;;;;;;;30.63;14.45;;;;;;;5.26;100.00;103103.69;10024067;28;20557;-75
2022/01/25 14:33:10;;;;;;;31.27;14.43;;;;;;;5.24;100.00;103107.69;10033977;28;20044;-75
2022/01/25 14:38:14;;;;;;;30.95;14.50;;;;;;;5.18;100.00;103106.72;10038374;28;20802;-74
2022/01/25 14:43:10;;;;;;;31.23;14.65;;;;;;;5.10;100.00;103106.97;10033817;28;20044;-75
2022/01/25 14:48:13;;;;;;;32.78;14.13;;;;;;;5.14;100.00;103097.34;10028426;29;20043;-75
2022/01/25 14:53:12;;;;;;;31.90;14.40;;;;;;;5.01;100.00;103109.16;10015119;29;20044;-75
2022/01/25 15:03:10;;;;;;;32.92;14.90;;;;;;;5.06;100.00;103105.78;10026642;29;20082;-75
2022/01/25 15:08:07;;;;;;;29.52;14.65;;;;;;;5.10;100.00;103106.97;10017687;28;20130;-75
2022/01/25 15:13:05;;;;;;;30.83;15.55;;;;;;;5.16;100.00;103106.09;10030363;28;20403;-75
2022/01/25 15:18:02;;;;;;;29.23;13.52;;;;;;;5.11;100.00;103114.06;10038061;28;20473;-76
2022/01/25 15:23:01;;;;;;;27.95;13.23;;;;;;;5.13;100.00;103101.13;10024442;29;20449;-76
2022/01/25 15:27:57;;;;;;;32.25;14.93;;;;;;;5.18;100.00;103109.41;10026614;28;20126;-76
2022/01/25 15:32:54;;;;;;;29.42;14.27;;;;;;;5.05;100.00;103114.97;10027742;28;20076;-71
2022/01/25 15:37:50;;;;;;;34.38;15.55;;;;;;;5.05;100.00;103095.97;10029191;29;20127;-71
2022/01/25 15:42:47;;;;;;;30.20;14.98;;;;;;;5.05;100.00;103093.25;10019228;29;20040;-71
2022/01/25 15:47:44;;;;;;;31.80;15.27;;;;;;;5.04;100.00;103107.88;10032852;28;20490;-71
2022/01/25 15:52:43;;;;;;;33.17;13.98;;;;;;;5.02;100.00;103099.97;10046208;28;20072;-71
2022/01/25 15:57:44;;;;;;;28.65;12.88;;;;;;;5.02;100.00;103109.97;10022278;28;20142;-71
2022/01/25 16:02:41;;;;;;;33.20;15.80;;;;;;;4.94;100.00;103104.81;10024588;28;20075;-71
2022/01/25 16:07:38;;;;;;;33.08;15.55;;;;;;;5.01;100.00;103095.59;10024418;28;20055;-70
2022/01/25 16:12:35;;;;;;;30.88;13.80;;;;;;;4.96;100.00;103094.59;10063313;28;20645;-71
2022/01/25 16:17:31;;;;;;;26.92;12.50;;;;;;;4.81;100.00;103098.47;10040683;28;20130;-71
2022/01/25 16:22:28;;;;;;;25.40;12.65;;;;;;;4.85;100.00;103105.13;10038402;28;20082;-71
2022/01/25 16:27:24;;;;;;;26.13;11.80;;;;;;;4.90;100.00;103106.31;10033051;28;20565;-70
2022/01/25 16:32:23;;;;;;;34.35;13.45;;;;;;;4.91;100.00;103103.38;10026225;29;20094;-71
2022/01/25 16:37:19;;;;;;;29.15;12.27;;;;;;;4.92;100.00;103098.78;10019396;28;20147;-71
2022/01/25 16:42:16;;;;;;;25.08;12.43;;;;;;;4.92;100.00;103096.09;10022654;28;20048;-71
2022/01/25 16:47:32;;;;;;;31.67;12.55;;;;;;;4.99;100.00;103100.41;10015770;29;20044;-71
2022/01/25 16:52:29;;;;;;;26.52;12.15;;;;;;;4.95;100.00;103096.47;10040762;28;20051;-71
2022/01/25 16:57:26;;;;;;;26.13;12.20;;;;;;;4.97;100.00;103096.28;10039648;28;20059;-71
2022/01/25 17:02:22;;;;;;;20.90;11.45;;;;;;;4.95;100.00;103101.09;10011910;29;20143;-71
2022/01/25 17:07:20;;;;;;;27.45;13.48;;;;;;;4.93;100.00;103100.47;10028316;28;20401;-71
2022/01/25 17:12:17;;;;;;;24.27;10.95;;;;;;;4.96;100.00;103089.16;10015211;28;20040;-71
2022/01/25 17:17:34;;;;;;;23.17;11.63;;;;;;;4.95;100.00;103093.78;10013312;28;20126;-70
2022/01/25 17:22:30;;;;;;;23.17;11.63;;;;;;;4.96;100.00;103100.00;10032434;28;20082;-70
2022/01/25 17:27:27;;;;;;;24.77;12.18;;;;;;;5.00;100.00;103103.94;10015110;29;20139;-71
2022/01/25 17:32:23;;;;;;;24.92;12.75;;;;;;;4.98;100.00;103114.19;10031724;28;20051;-71
2022/01/25 17:37:20;;;;;;;23.88;12.18;;;;;;;4.89;100.00;103116.34;10056065;28;20620;-70
2022/01/25 17:42:16;;;;;;;23.70;13.30;;;;;;;4.84;100.00;103108.84;10029140;28;20040;-69
2022/01/25 17:47:13;;;;;;;24.58;12.18;;;;;;;4.83;100.00;103111.81;10018730;29;20051;-70
2022/01/25 17:52:10;;;;;;;27.35;13.20;;;;;;;4.85;100.00;103109.72;10014477;28;20396;-71
2022/01/25 17:57:06;;;;;;;24.08;12.27;;;;;;;4.89;100.00;103101.97;10018861;28;20656;-70
2022/01/25 18:02:03;;;;;;;22.65;12.45;;;;;;;4.84;100.00;103092.59;10023259;28;20052;-71
2022/01/25 18:07:00;;;;;;;25.45;12.75;;;;;;;4.87;100.00;103095.91;10022976;28;20063;-71
2022/01/25 18:11:57;;;;;;;27.38;13.52;;;;;;;4.89;100.00;103093.81;10035714;28;20048;-71
2022/01/25 18:16:53;;;;;;;26.88;12.85;;;;;;;4.89;100.00;103099.25;10032254;28;20043;-71
2022/01/25 18:21:50;;;;;;;28.05;13.63;;;;;;;5.00;100.00;103093.94;10033381;28;20047;-71
2022/01/25 18:26:51;;;;;;;24.52;12.43;;;;;;;4.94;100.00;103099.41;10025515;28;20131;-70
2022/01/25 18:31:50;;;;;;;26.90;13.70;;;;;;;4.96;100.00;103095.41;10033328;28;20521;-69
2022/01/25 18:36:46;;;;;;;27.50;14.00;;;;;;;4.89;100.00;103110.09;10046069;28;20053;-71
2022/01/25 18:41:45;;;;;;;33.60;15.57;;;;;;;4.80;100.00;103104.09;10051774;29;20131;-71
2022/01/25 18:46:42;;;;;;;34.55;16.05;;;;;;;4.87;100.00;103113.00;10027220;28;20058;-70
2022/01/25 18:51:40;;;;;;;33.20;16.05;;;;;;;4.89;100.00;103112.81;10028124;29;20574;-71
2022/01/25 18:56:38;;;;;;;30.80;15.23;;;;;;;4.95;100.00;103109.22;10042050;28;20055;-71
2022/01/25 19:01:37;;;;;;;32.40;15.82;;;;;;;4.93;100.00;103117.56;10019563;29;20099;-71
2022/01/25 19:06:34;;;;;;;29.50;14.95;;;;;;;4.91;100.00;103105.28;10025402;28;20048;-71
2022/01/25 19:11:30;;;;;;;31.83;14.63;;;;;;;4.96;100.00;103105.44;10032101;29;20540;-71
2022/01/25 19:16:28;;;;;;;31.52;15.05;;;;;;;4.93;100.00;103089.63;10025122;28;20481;-71
2022/01/25 19:21:25;;;;;;;29.65;14.00;;;;;;;4.80;100.00;103096.81;10051159;28;20059;-71
2022/01/25 19:26:21;;;;;;;31.42;14.15;;;;;;;4.71;100.00;103090.00;10045062;28;20109;-71
2022/01/25 19:31:18;;;;;;;28.77;14.15;;;;;;;4.76;100.00;103084.75;10040562;29;20355;-71
2022/01/25 19:36:17;;;;;;;30.73;14.95;;;;;;;4.67;100.00;103083.38;10042015;29;20055;-71
2022/01/25 19:41:14;;;;;;;30.85;15.77;;;;;;;4.69;100.00;103088.53;10038429;29;20044;-71
2022/01/25 19:46:11;;;;;;;29.58;14.73;;;;;;;4.81;100.00;103087.63;10028648;28;20051;-71
2022/01/25 19:51:09;;;;;;;33.25;14.85;;;;;;;4.71;100.00;103087.31;10039398;29;20078;-71
2022/01/25 19:56:07;;;;;;;32.53;15.77;;;;;;;4.62;100.00;103083.19;10038457;28;20050;-71
2022/01/25 20:01:06;;;;;;;34.10;15.85;;;;;;;4.64;100.00;103076.50;10031201;29;20047;-71
2022/01/25 20:06:06;;;;;;;35.95;16.02;;;;;;;4.79;100.00;103084.31;10012334;28;20611;-67
2022/01/25 20:11:05;;;;;;;28.70;13.77;;;;;;;4.56;100.00;103086.78;10009122;29;20127;-68
2022/01/25 20:16:05;;;;;;;32.30;16.23;;;;;;;4.76;100.00;103078.50;10016852;29;20051;-70
2022/01/25 20:26:15;;;;;;;25.40;10.75;;;;;;;4.40;100.00;103067.28;10026379;29;20043;-67
2022/01/25 20:31:15;;;;;;;23.20;12.27;;;;;;;4.63;100.00;103063.16;10026525;29;20120;-68
2022/01/25 20:36:14;;;;;;;24.17;12.65;;;;;;;4.62;100.00;103056.09;10015806;29;20525;-68
2022/01/25 20:41:11;;;;;;;28.55;13.82;;;;;;;4.68;100.00;103060.63;10022832;28;20559;-68
2022/01/25 20:46:07;;;;;;;27.02;13.65;;;;;;;4.78;100.00;103052.00;10028213;28;20450;-67
2022/01/25 20:51:09;;;;;;;27.20;12.57;;;;;;;4.70;100.00;103058.53;10029911;28;20118;-67
2022/01/25 20:56:11;;;;;;;20.58;10.50;;;;;;;4.51;100.00;103054.09;10036284;28;20074;-67
2022/01/25 21:01:10;;;;;;;19.95;10.13;;;;;;;4.68;100.00;103038.94;10010082;28;20110;-66
2022/01/25 21:11:23;;;;;;;17.70;8.98;;;;;;;4.66;100.00;103035.63;10021502;28;20098;-66
2022/01/25 21:16:21;;;;;;;25.83;12.60;;;;;;;4.70;100.00;103026.00;10042725;28;20052;-66
2022/01/25 21:21:19;;;;;;;23.48;11.43;;;;;;;4.65;100.00;103023.13;10014862;29;20047;-66
2022/01/25 21:26:18;;;;;;;26.90;12.35;;;;;;;4.65;100.00;103023.13;10024101;28;20418;-66
2022/01/25 21:31:21;;;;;;;26.63;13.15;;;;;;;4.75;100.00;103018.03;10022217;28;20502;-66
2022/01/25 21:36:19;;;;;;;28.48;13.48;;;;;;;4.60;100.00;103020.28;10028809;28;20079;-67
2022/01/25 21:41:17;;;;;;;34.63;15.23;;;;;;;4.56;100.00;103035.31;10048934;28;20574;-67
2022/01/25 21:46:15;;;;;;;32.25;15.35;;;;;;;4.56;100.00;103029.88;10035104;28;20076;-67
2022/01/25 21:51:11;;;;;;;34.22;15.98;;;;;;;4.62;100.00;103023.59;10028480;28;20074;-67
2022/01/25 21:56:08;;;;;;;39.70;17.75;;;;;;;4.54;100.00;103021.13;10029594;28;20135;-67
2022/01/25 22:01:05;;;;;;;30.80;14.63;;;;;;;4.52;100.00;103023.25;10018334;29;20566;-67
2022/01/25 22:06:12;;;;;;;35.88;15.85;;;;;;;4.37;100.00;103021.69;10035402;28;20051;-67
2022/01/25 22:11:13;;;;;;;34.17;16.88;;;;;;;4.45;100.00;103017.88;10021430;28;20076;-67
2022/01/25 22:16:15;;;;;;;35.65;16.15;;;;;;;4.53;100.00;103008.66;10037911;28;20572;-67
2022/01/25 22:21:11;;;;;;;37.58;17.23;;;;;;;4.49;100.00;103004.72;10028384;28;20074;-67
2022/01/25 22:26:10;;;;;;;41.10;18.08;;;;;;;4.46;100.00;103007.88;10033509;28;20122;-66
2022/01/25 22:31:07;;;;;;;36.20;15.98;;;;;;;4.48;100.00;103016.59;10048290;28;20131;-71
2022/01/25 22:36:04;;;;;;;35.97;16.73;;;;;;;4.45;100.00;103027.88;10029319;28;20773;-70
2022/01/25 22:41:00;;;;;;;43.88;18.63;;;;;;;4.43;100.00;103039.78;10022120;28;20071;-70
2022/01/25 22:45:57;;;;;;;38.47;18.27;;;;;;;4.29;100.00;103035.47;10034511;28;20044;-72
2022/01/25 22:50:55;;;;;;;44.38;19.38;;;;;;;4.21;100.00;103038.47;10037006;29;20076;-71
2022/01/25 22:55:51;;;;;;;43.55;19.35;;;;;;;4.31;100.00;103038.81;10031371;28;20125;-69
2022/01/25 23:01:00;;;;;;;42.90;20.02;;;;;;;4.26;100.00;103027.81;10045049;29;20079;-70
2022/01/25 23:05:57;;;;;;;45.05;18.77;;;;;;;4.26;100.00;103024.28;10047266;28;20043;-71
2022/01/25 23:10:53;;;;;;;40.45;18.90;;;;;;;4.21;100.00;103022.22;10031091;28;20094;-71
2022/01/25 23:15:51;;;;;;;49.17;19.50;;;;;;;4.17;100.00;103015.56;10031837;28;20063;-71
2022/01/25 23:20:53;;;;;;;44.97;19.55;;;;;;;4.16;100.00;103014.75;10037693;28;20110;-72
2022/01/25 23:25:49;;;;;;;41.00;18.30;;;;;;;4.09;100.00;103019.38;10041964;28;20054;-71
2022/01/25 23:30:57;;;;;;;43.13;17.85;;;;;;;4.08;100.00;103023.13;10025157;28;20135;-72
2022/01/25 23:36:01;;;;;;;42.42;18.13;;;;;;;4.06;100.00;103018.97;10032263;28;20054;-71
2022/01/25 23:41:44;;;;;;;44.95;18.48;;;;;;;3.97;100.00;103011.13;10011071;29;20098;-70
2022/01/25 23:46:24;;;;;;;45.78;17.15;;;;;;;4.00;100.00;103002.56;10011006;29;20040;-70
2022/01/25 23:51:39;;;;;;;42.53;19.40;;;;;;;3.93;100.00;102999.06;10021648;28;20043;-70
